createdAt,value
2022-11-05T00:01:32.473Z,96.20
2022-11-05T00:04:53.286Z,96.50
2022-11-05T00:08:14.009Z,97.00
2022-11-05T00:11:18.315Z,97.00
2022-11-05T00:14:39.066Z,96.90
2022-11-05T00:17:41.674Z,96.90
2022-11-05T00:20:44.219Z,96.70
2022-11-05T00:24:04.650Z,96.80
2022-11-05T00:27:07.107Z,96.90
2022-11-05T00:30:09.923Z,96.90
2022-11-05T00:33:12.432Z,96.90
2022-11-05T00:36:14.776Z,96.80
2022-11-05T00:39:17.115Z,97.00
2022-11-05T00:42:37.747Z,97.20
2022-11-05T00:45:41.156Z,97.30
2022-11-05T00:49:01.847Z,97.60
2022-11-05T00:52:23.099Z,97.70
2022-11-05T00:55:34.411Z,98.10
2022-11-05T00:58:36.487Z,98.20
2022-11-05T01:01:38.664Z,98.10
2022-11-05T01:04:40.783Z,98.10
2022-11-05T01:07:43.002Z,98.20
2022-11-05T01:10:51.491Z,98.20
2022-11-05T01:13:53.671Z,98.20
2022-11-05T01:16:56.849Z,98.30
2022-11-05T01:19:59.174Z,98.30
2022-11-05T01:23:01.420Z,98.60
2022-11-05T01:26:03.734Z,98.80
2022-11-05T01:29:05.856Z,98.60
2022-11-05T01:32:10.997Z,98.80
2022-11-05T01:35:15.396Z,98.60
2022-11-05T01:38:18.352Z,98.80
2022-11-05T01:41:20.567Z,98.90
2022-11-05T01:44:50.378Z,98.80
2022-11-05T01:48:05.517Z,99.00
2022-11-05T01:51:11.790Z,98.90
2022-11-05T01:54:18.560Z,98.90
2022-11-05T01:57:21.356Z,99.10
2022-11-05T02:00:23.603Z,99.10
2022-11-05T02:03:26.978Z,99.10
2022-11-05T02:06:32.786Z,98.80
2022-11-05T02:09:51.100Z,98.70
2022-11-05T02:12:53.336Z,99.40
2022-11-05T02:16:13.398Z,99.00
2022-11-05T02:19:36.589Z,99.10
2022-11-05T02:22:57.015Z,99.10
2022-11-05T02:26:11.282Z,99.50
2022-11-05T02:29:50.680Z,99.40
2022-11-05T02:33:24.978Z,99.60
2022-11-05T02:36:43.919Z,99.70
2022-11-05T02:39:53.123Z,99.90
2022-11-05T02:43:15.461Z,99.80
2022-11-05T02:47:03.758Z,99.90
2022-11-05T02:50:17.802Z,99.90
2022-11-05T02:53:41.237Z,99.90
2022-11-05T02:56:48.512Z,99.90
2022-11-05T03:00:21.200Z,99.90
2022-11-05T03:03:42.187Z,99.90
2022-11-05T03:07:14.748Z,99.90
2022-11-05T03:10:25.591Z,99.90
2022-11-05T03:13:53.613Z,99.90
2022-11-05T03:17:16.130Z,99.90
2022-11-05T03:20:34.391Z,99.90
2022-11-05T03:23:57.135Z,99.90
2022-11-05T03:27:06.155Z,99.90
2022-11-05T03:30:11.593Z,99.90
2022-11-05T03:33:21.354Z,99.90
2022-11-05T03:36:37.845Z,99.90
2022-11-05T03:39:44.370Z,99.90
2022-11-05T03:42:50.693Z,99.90
2022-11-05T03:45:59.572Z,99.90
2022-11-05T03:49:04.557Z,99.90
2022-11-05T03:52:15.636Z,99.90
2022-11-05T03:55:17.905Z,99.90
2022-11-05T03:58:22.881Z,99.90
2022-11-05T04:01:25.623Z,99.90
2022-11-05T04:04:27.978Z,99.90
2022-11-05T04:07:48.476Z,99.90
2022-11-05T04:11:09.059Z,99.90
2022-11-05T04:14:11.475Z,99.90
2022-11-05T04:17:13.544Z,99.90
2022-11-05T04:20:34.042Z,99.90
2022-11-05T04:23:54.674Z,99.90
2022-11-05T04:26:57.152Z,99.90
2022-11-05T04:30:17.928Z,99.90
2022-11-05T04:33:20.067Z,99.90
2022-11-05T04:36:22.245Z,99.90
2022-11-05T04:39:25.269Z,99.90
2022-11-05T04:42:28.303Z,99.90
2022-11-05T04:45:34.480Z,99.90
2022-11-05T04:48:37.720Z,99.90
2022-11-05T04:51:39.992Z,99.90
2022-11-05T04:54:42.275Z,99.90
2022-11-05T04:57:47.130Z,99.90
2022-11-05T05:00:50.172Z,99.90
2022-11-05T05:03:54.015Z,99.90
2022-11-05T05:06:57.066Z,99.90
2022-11-05T05:09:59.737Z,99.90
2022-11-05T05:13:02.034Z,99.90
2022-11-05T05:16:17.662Z,99.90
2022-11-05T05:19:25.127Z,99.90
2022-11-05T05:22:27.525Z,99.90
2022-11-05T05:25:31.646Z,99.90
2022-11-05T05:28:33.957Z,99.90
2022-11-05T05:31:38.088Z,99.90
2022-11-05T05:34:40.481Z,99.90
2022-11-05T05:37:43.094Z,99.90
2022-11-05T05:40:45.268Z,99.90
2022-11-05T05:43:47.488Z,99.90
2022-11-05T05:46:50.589Z,99.90
2022-11-05T05:49:52.962Z,99.90
2022-11-05T05:52:55.170Z,99.90
2022-11-05T05:55:58.284Z,99.90
2022-11-05T05:59:00.427Z,99.90
2022-11-05T06:02:02.741Z,99.90
2022-11-05T06:05:05.485Z,99.90
2022-11-05T06:08:07.579Z,99.90
2022-11-05T06:11:10.072Z,99.90
2022-11-05T06:14:13.254Z,99.90
2022-11-05T06:17:15.332Z,99.90
2022-11-05T06:20:17.611Z,99.90
2022-11-05T06:23:19.714Z,99.90
2022-11-05T06:26:21.844Z,99.90
2022-11-05T06:29:24.040Z,99.90
2022-11-05T06:32:26.212Z,99.90
2022-11-05T06:35:28.346Z,99.90
2022-11-05T06:38:33.689Z,99.90
2022-11-05T06:41:56.905Z,99.90
2022-11-05T06:44:57.962Z,99.90
2022-11-05T06:48:00.435Z,99.90
2022-11-05T06:51:03.476Z,99.90
2022-11-05T06:54:08.339Z,99.90
2022-11-05T06:57:11.447Z,99.90
2022-11-05T07:00:15.062Z,99.90
2022-11-05T07:03:17.588Z,99.90
2022-11-05T07:06:19.646Z,99.90
2022-11-05T07:09:21.717Z,99.90
2022-11-05T07:12:23.955Z,99.90
2022-11-05T07:15:26.108Z,99.90
2022-11-05T07:18:29.848Z,99.90
2022-11-05T07:21:31.992Z,99.90
2022-11-05T07:24:34.216Z,99.90
2022-11-05T07:27:40.223Z,99.90
2022-11-05T07:30:42.492Z,99.90
2022-11-05T07:33:44.666Z,99.90
2022-11-05T07:36:47.653Z,99.90
2022-11-05T07:39:49.647Z,99.40
2022-11-05T07:42:54.204Z,97.90
2022-11-05T07:45:56.477Z,96.20
2022-11-05T07:48:58.594Z,94.40
2022-11-05T07:52:00.576Z,93.90
2022-11-05T07:55:02.948Z,92.10
2022-11-05T07:58:06.064Z,90.70
2022-11-05T08:01:08.342Z,90.30
2022-11-05T08:04:11.269Z,86.10
2022-11-05T08:07:13.427Z,82.30
2022-11-05T08:10:15.461Z,82.50
2022-11-05T08:13:18.747Z,78.50
2022-11-05T08:16:20.850Z,78.60
2022-11-05T08:19:23.087Z,76.50
2022-11-05T08:22:25.220Z,74.70
2022-11-05T08:25:28.037Z,71.50
2022-11-05T08:28:30.391Z,69.20
2022-11-05T08:31:32.912Z,68.30
2022-11-05T08:34:35.200Z,66.30
2022-11-05T08:37:37.337Z,64.50
2022-11-05T08:40:40.773Z,61.30
2022-11-05T08:43:42.883Z,61.80
2022-11-05T08:46:45.040Z,63.20
2022-11-05T08:49:47.279Z,61.70
2022-11-05T08:52:49.399Z,58.20
2022-11-05T08:55:51.902Z,54.90
2022-11-05T08:58:53.955Z,54.40
2022-11-05T09:01:56.794Z,51.30
2022-11-05T09:04:59.019Z,51.30
2022-11-05T09:08:01.743Z,50.30
2022-11-05T09:11:03.982Z,46.10
2022-11-05T09:14:06.981Z,47.30
2022-11-05T09:17:20.972Z,45.30
2022-11-05T09:20:23.722Z,46.30
2022-11-05T09:23:25.922Z,45.50
2022-11-05T09:26:28.105Z,47.30
2022-11-05T09:29:30.132Z,45.20
2022-11-05T09:32:37.981Z,44.50
2022-11-05T09:35:41.557Z,43.30
2022-11-05T09:38:43.676Z,41.90
2022-11-05T09:41:47.042Z,42.00
2022-11-05T09:44:51.276Z,41.70
2022-11-05T09:47:58.386Z,41.10
2022-11-05T09:51:01.780Z,39.10
2022-11-05T09:54:05.641Z,40.40
2022-11-05T09:57:14.981Z,42.90
2022-11-05T10:00:18.095Z,39.30
2022-11-05T10:03:23.346Z,41.60
2022-11-05T10:06:27.983Z,39.40
2022-11-05T10:09:45.394Z,39.30
2022-11-05T10:12:53.398Z,36.60
2022-11-05T10:16:46.181Z,38.70
2022-11-05T10:20:11.095Z,38.60
2022-11-05T10:23:16.446Z,41.60
2022-11-05T10:26:26.864Z,41.90
2022-11-05T10:29:34.495Z,39.50
2022-11-05T10:32:42.460Z,38.60
2022-11-05T10:35:54.760Z,39.70
2022-11-05T10:39:13.129Z,38.00
2022-11-05T10:42:32.814Z,39.60
2022-11-05T10:45:47.164Z,40.40
2022-11-05T10:49:19.718Z,40.40
2022-11-05T10:52:31.377Z,41.10
2022-11-05T10:55:38.494Z,41.00
2022-11-05T10:58:57.651Z,41.10
2022-11-05T11:02:26.380Z,39.40
2022-11-05T11:05:36.449Z,38.20
2022-11-05T11:08:43.783Z,37.20
2022-11-05T11:11:46.138Z,38.20
2022-11-05T11:15:02.473Z,38.80
2022-11-05T11:18:25.588Z,39.30
2022-11-05T11:21:29.632Z,38.50
2022-11-05T11:24:38.935Z,40.30
2022-11-05T11:27:41.210Z,40.20
2022-11-05T11:30:49.331Z,42.80
2022-11-05T11:33:59.198Z,44.80
2022-11-05T11:37:20.317Z,46.60
2022-11-05T11:40:38.085Z,49.70
2022-11-05T11:43:41.851Z,55.60
2022-11-05T11:46:50.087Z,58.10
2022-11-05T11:50:00.440Z,61.20
2022-11-05T11:53:21.016Z,63.20
2022-11-05T11:56:23.200Z,65.30
2022-11-05T11:59:54.001Z,66.80
2022-11-05T12:03:02.109Z,67.70
2022-11-05T12:06:16.348Z,69.90
2022-11-05T12:09:28.265Z,71.00
2022-11-05T12:13:13.841Z,71.80
2022-11-05T12:16:42.211Z,73.00
2022-11-05T12:20:09.948Z,73.20
2022-11-05T12:23:57.443Z,74.70
2022-11-05T12:27:33.908Z,75.10
2022-11-05T12:31:03.281Z,75.70
2022-11-05T12:34:27.294Z,76.40
2022-11-05T12:37:35.387Z,76.50
2022-11-05T12:40:58.760Z,76.70
2022-11-05T12:44:37.284Z,76.60
2022-11-05T12:48:00.577Z,77.20
2022-11-05T12:51:28.458Z,76.70
2022-11-05T12:54:53.935Z,77.30
2022-11-05T12:58:04.486Z,77.70
2022-11-05T13:01:18.123Z,76.90
2022-11-05T13:04:44.163Z,76.30
2022-11-05T13:08:07.545Z,75.80
2022-11-05T13:11:25.052Z,75.40
2022-11-05T13:14:42.577Z,75.70
2022-11-05T13:18:05.860Z,75.50
2022-11-05T13:21:10.746Z,75.70
2022-11-05T13:24:31.124Z,76.50
2022-11-05T13:27:48.482Z,77.60
2022-11-05T13:30:57.957Z,77.90
2022-11-05T13:34:04.414Z,77.30
2022-11-05T13:37:27.516Z,79.00
2022-11-05T13:41:01.952Z,79.90
2022-11-05T13:44:51.401Z,80.10
2022-11-05T13:47:56.280Z,79.50
2022-11-05T13:51:38.695Z,79.00
2022-11-05T13:55:03.942Z,79.80
2022-11-05T13:58:33.838Z,78.30
2022-11-05T14:01:48.054Z,77.60
2022-11-05T14:05:00.505Z,78.70
2022-11-05T14:08:18.635Z,77.50
2022-11-05T14:11:20.739Z,78.10
2022-11-05T14:14:27.344Z,75.30
2022-11-05T14:17:34.529Z,75.10
2022-11-05T14:20:36.908Z,75.30
2022-11-05T14:23:51.322Z,77.40
2022-11-05T14:27:02.674Z,77.80
2022-11-05T14:30:42.080Z,78.40
2022-11-05T14:34:01.353Z,78.50
2022-11-05T14:37:22.506Z,78.10
2022-11-05T14:40:42.512Z,78.30
2022-11-05T14:43:54.697Z,78.90
2022-11-05T14:47:00.478Z,78.80
2022-11-05T14:50:09.228Z,78.50
2022-11-05T14:53:29.966Z,78.00
2022-11-05T14:56:53.309Z,78.10
2022-11-05T15:00:00.950Z,78.80
2022-11-05T15:03:46.196Z,77.90
2022-11-05T15:07:04.941Z,77.80
2022-11-05T15:10:11.999Z,76.60
2022-11-05T15:13:38.723Z,77.50
2022-11-05T15:16:48.980Z,77.10
2022-11-05T15:19:52.390Z,76.90
2022-11-05T15:23:00.768Z,76.20
2022-11-05T15:26:21.822Z,76.80
2022-11-05T15:29:28.365Z,76.20
2022-11-05T15:32:34.543Z,76.80
2022-11-05T15:35:41.640Z,77.20
2022-11-05T15:39:01.983Z,77.10
2022-11-05T15:42:22.371Z,76.30
2022-11-05T15:45:24.832Z,76.70
2022-11-05T15:48:27.043Z,76.60
2022-11-05T15:51:30.732Z,76.00
2022-11-05T15:54:33.083Z,75.50
2022-11-05T15:57:40.034Z,75.50
2022-11-05T16:00:47.641Z,75.70
2022-11-05T16:03:53.158Z,76.20
2022-11-05T16:06:58.481Z,80.00
2022-11-05T16:10:02.091Z,81.00
2022-11-05T16:13:43.855Z,82.10
2022-11-05T16:16:49.441Z,82.00
2022-11-05T16:19:52.092Z,82.30
2022-11-05T16:23:06.451Z,81.90
2022-11-05T16:26:55.868Z,82.10
2022-11-05T16:29:51.851Z,82.80
2022-11-05T16:32:54.409Z,82.20
2022-11-05T16:35:56.613Z,82.40
2022-11-05T16:38:59.634Z,82.30
2022-11-05T16:42:01.900Z,82.30
2022-11-05T16:45:04.769Z,82.50
2022-11-05T16:48:09.096Z,82.70
2022-11-05T16:51:11.997Z,82.80
2022-11-05T16:54:14.315Z,83.20
2022-11-05T16:57:31.180Z,82.80
2022-11-05T17:00:33.572Z,83.10
2022-11-05T17:03:36.272Z,83.60
2022-11-05T17:06:39.196Z,84.00
2022-11-05T17:09:41.542Z,84.20
2022-11-05T17:12:43.896Z,84.50
2022-11-05T17:15:48.102Z,84.50
2022-11-05T17:18:50.346Z,85.40
2022-11-05T17:21:52.680Z,85.40
2022-11-05T17:24:55.132Z,85.70
2022-11-05T17:27:58.108Z,86.40
2022-11-05T17:31:02.120Z,87.30
2022-11-05T17:34:04.389Z,86.60
2022-11-05T17:37:06.575Z,87.30
2022-11-05T17:40:13.810Z,87.90
2022-11-05T17:43:16.388Z,88.50
2022-11-05T17:46:19.324Z,89.20
2022-11-05T17:49:21.488Z,89.60
2022-11-05T17:52:23.865Z,89.80
2022-11-05T17:55:27.400Z,90.20
2022-11-05T17:58:30.700Z,90.20
2022-11-05T18:01:35.708Z,90.40
2022-11-05T18:04:39.824Z,91.10
2022-11-05T18:07:42.874Z,90.90
2022-11-05T18:10:45.122Z,91.20
2022-11-05T18:13:47.310Z,91.20
2022-11-05T18:16:51.198Z,91.60
2022-11-05T18:19:53.573Z,92.10
2022-11-05T18:22:55.703Z,92.50
2022-11-05T18:25:57.878Z,92.50
2022-11-05T18:29:04.848Z,92.70
2022-11-05T18:32:07.250Z,93.00
2022-11-05T18:35:10.152Z,92.70
2022-11-05T18:38:12.794Z,93.70
2022-11-05T18:41:15.466Z,93.30
2022-11-05T18:44:22.802Z,93.20
2022-11-05T18:47:25.065Z,93.10
2022-11-05T18:50:27.866Z,93.30
2022-11-05T18:53:30.222Z,93.20
2022-11-05T18:56:32.827Z,93.40
2022-11-05T18:59:38.775Z,93.40
2022-11-05T19:02:42.020Z,93.40
2022-11-05T19:05:44.313Z,93.30
2022-11-05T19:08:47.309Z,93.90
2022-11-05T19:11:49.766Z,94.10
2022-11-05T19:14:51.812Z,94.00
2022-11-05T19:17:54.065Z,93.90
2022-11-05T19:20:56.342Z,94.00
2022-11-05T19:24:01.582Z,94.20
2022-11-05T19:27:04.776Z,94.20
2022-11-05T19:30:07.255Z,94.70
2022-11-05T19:33:09.370Z,94.60
2022-11-05T19:36:12.843Z,94.50
2022-11-05T19:39:15.333Z,94.70
2022-11-05T19:42:17.597Z,94.80
2022-11-05T19:48:43.880Z,95.30
2022-11-05T19:51:46.009Z,95.40
2022-11-05T19:54:47.987Z,95.20
2022-11-05T19:57:50.999Z,95.50
2022-11-05T20:00:55.707Z,95.40
2022-11-05T20:03:59.560Z,95.70
2022-11-05T20:07:02.829Z,95.80
2022-11-05T20:10:06.662Z,96.00
2022-11-05T20:13:08.768Z,95.80
2022-11-05T20:16:22.487Z,96.10
2022-11-05T20:19:24.598Z,96.40
2022-11-05T20:22:27.028Z,96.30
2022-11-05T20:25:30.666Z,96.10
2022-11-05T20:28:34.097Z,96.30
2022-11-05T20:31:36.445Z,96.40
2022-11-05T20:34:39.074Z,96.80
2022-11-05T20:37:41.388Z,96.70
2022-11-05T20:40:43.499Z,96.70
2022-11-05T20:43:46.946Z,96.70
2022-11-05T20:46:49.158Z,96.80
2022-11-05T20:49:51.877Z,97.00
2022-11-05T20:52:53.953Z,97.20
2022-11-05T20:55:56.313Z,97.00
2022-11-05T20:59:00.154Z,97.20
2022-11-05T21:02:02.578Z,97.50
2022-11-05T21:05:05.401Z,97.60
2022-11-05T21:08:08.246Z,97.50
2022-11-05T21:11:10.759Z,97.70
2022-11-05T21:14:12.791Z,97.70
2022-11-05T21:17:15.370Z,97.60
2022-11-05T21:20:18.757Z,97.40
2022-11-05T21:23:20.995Z,97.40
2022-11-05T21:26:23.227Z,97.40
2022-11-05T21:29:26.493Z,97.40
2022-11-05T21:32:28.756Z,97.60
2022-11-05T21:35:31.255Z,97.40
2022-11-05T21:38:33.424Z,97.50
2022-11-05T21:41:36.833Z,97.60
2022-11-05T21:44:39.982Z,97.80
2022-11-05T21:47:42.527Z,97.70
2022-11-05T21:51:03.979Z,97.90
2022-11-05T21:54:25.455Z,98.00
2022-11-05T21:57:48.011Z,98.20
2022-11-05T22:00:50.282Z,98.30
2022-11-05T22:03:52.488Z,98.30
2022-11-05T22:06:54.508Z,98.20
2022-11-05T22:09:57.070Z,98.30
2022-11-05T22:12:59.354Z,98.20
2022-11-05T22:16:01.573Z,98.10
2022-11-05T22:19:03.759Z,98.20
2022-11-05T22:22:06.871Z,98.30
2022-11-05T22:25:09.933Z,98.20
2022-11-05T22:28:12.259Z,98.30
2022-11-05T22:31:15.961Z,98.40
2022-11-05T22:34:18.511Z,98.40
2022-11-05T22:37:20.560Z,98.60
2022-11-05T22:40:24.173Z,98.60
2022-11-05T22:43:27.696Z,98.80
2022-11-05T22:46:30.701Z,98.90
2022-11-05T22:49:34.450Z,99.10
2022-11-05T22:52:36.507Z,99.10
2022-11-05T22:55:39.996Z,99.50
2022-11-05T22:58:42.495Z,99.40
2022-11-05T23:01:45.894Z,99.50
2022-11-05T23:04:49.636Z,99.50
2022-11-05T23:08:10.414Z,99.50
2022-11-05T23:11:36.209Z,99.80
2022-11-05T23:14:38.330Z,99.90
2022-11-05T23:18:00.982Z,99.90
2022-11-05T23:21:23.216Z,99.90
2022-11-05T23:24:26.512Z,99.80
2022-11-05T23:27:30.952Z,99.90
2022-11-05T23:30:33.483Z,99.90
2022-11-05T23:33:37.489Z,99.90
2022-11-05T23:36:57.970Z,99.90
2022-11-05T23:40:00.281Z,99.90
2022-11-05T23:43:21.045Z,99.90
2022-11-05T23:46:42.167Z,99.90
2022-11-05T23:49:44.247Z,99.90
2022-11-05T23:52:47.144Z,99.90
2022-11-05T23:55:50.085Z,99.90
2022-11-05T23:58:53.862Z,99.90
